Time;durP1;ratioP1;P1;durP2;ratioP2;P2;SDS_P1;SDS_P2;PMS_P1;PMS_P2;Temp;Humidity;BMP_temperature;BMP_pressure;BME280_temperature;BME280_humidity;BME280_pressure;Samples;Min_cycle;Max_cycle;Signal;HPM_P1;HPM_P2
2022/06/02 00:01:26;;;;;;;3.00;0.80;;;;;;;25.40;29.63;101349.50;5104516;28;20031;-45
2022/06/02 00:04:02;;;;;;;1.73;0.55;;;;;;;25.41;29.94;101364.41;5101177;28;20036;-44
2022/06/02 00:06:31;;;;;;;2.17;0.88;;;;;;;25.38;30.12;101359.09;5086316;28;20098;-44
2022/06/02 00:09:00;;;;;;;1.73;0.80;;;;;;;25.39;30.21;101359.16;5104253;28;20433;-44
2022/06/02 00:11:54;;;;;;;0.80;0.40;;;;;;;25.43;29.78;101360.97;5104276;28;20028;-43
2022/06/02 00:14:25;;;;;;;1.63;0.60;;;;;;;25.48;29.62;101354.03;5101510;28;20039;-43
2022/06/02 00:17:01;;;;;;;1.83;0.52;;;;;;;25.49;29.64;101354.91;5086443;28;20027;-44
2022/06/02 00:19:35;;;;;;;2.15;0.50;;;;;;;25.41;30.05;101346.03;5102784;28;20024;-44
2022/06/02 00:22:21;;;;;;;1.80;0.52;;;;;;;25.33;29.76;101335.41;5102511;28;20388;-46
2022/06/02 00:25:09;;;;;;;4.07;0.68;;;;;;;25.36;29.86;101355.56;5093003;28;20492;-45
2022/06/02 00:27:42;;;;;;;1.80;0.50;;;;;;;25.33;29.92;101349.41;5094957;28;20043;-43
2022/06/02 00:30:19;;;;;;;1.38;0.50;;;;;;;25.34;29.87;101355.56;5104520;28;20031;-44
2022/06/02 00:33:12;;;;;;;1.15;0.60;;;;;;;25.41;29.96;101359.16;5102742;28;20106;-44
2022/06/02 00:35:52;;;;;;;4.40;0.70;;;;;;;25.34;30.29;101358.19;5102205;28;20409;-43
2022/06/02 00:38:24;;;;;;;1.23;0.50;;;;;;;25.32;30.24;101346.78;5103518;28;20035;-43
2022/06/02 00:40:53;;;;;;;3.03;0.60;;;;;;;25.26;29.81;101342.34;5103779;28;20036;-44
2022/06/02 00:43:32;;;;;;;1.65;0.60;;;;;;;25.27;29.62;101351.97;5102674;28;20032;-45
2022/06/02 00:46:17;;;;;;;1.58;0.55;;;;;;;25.18;30.26;101351.84;5104018;28;20053;-45
2022/06/02 00:48:49;;;;;;;;;;;;;;;25.23;30.00;101358.03;5104500;28;20032;-43
2022/06/02 00:51:42;;;;;;;1.63;0.60;;;;;;;25.13;30.52;101356.16;5086215;28;20006;-43
2022/06/02 00:57:42;;;;;;;1.25;0.60;;;;;;;25.20;29.86;101355.38;5096029;28;20032;-43
2022/06/02 01:00:16;;;;;;;3.00;0.73;;;;;;;25.18;30.04;101357.09;5077735;28;20040;-44
2022/06/02 01:03:05;;;;;;;0.98;0.60;;;;;;;25.12;30.27;101355.25;5102528;28;20022;-44
2022/06/02 01:05:44;;;;;;;2.28;0.55;;;;;;;25.16;30.32;101359.69;5103324;28;20035;-43
2022/06/02 01:08:25;;;;;;;2.40;0.50;;;;;;;25.07;29.97;101345.56;5102590;28;20404;-43
2022/06/02 01:11:14;;;;;;;1.52;0.40;;;;;;;25.06;29.85;101351.66;5103951;28;20023;-44
2022/06/02 01:13:48;;;;;;;1.00;0.60;;;;;;;25.13;29.98;101351.78;5103753;28;20044;-43
2022/06/02 01:16:17;;;;;;;2.08;0.50;;;;;;;25.20;30.22;101360.63;5102766;28;20480;-43
2022/06/02 01:18:56;;;;;;;4.50;0.93;;;;;;;25.07;30.33;101356.94;5102376;28;20035;-45
2022/06/02 01:22:03;;;;;;;2.80;0.85;;;;;;;25.05;30.27;101348.19;5104074;28;20023;-43
2022/06/02 01:24:40;;;;;;;1.58;0.50;;;;;;;25.16;30.47;101356.19;5099628;28;20042;-44
2022/06/02 01:27:11;;;;;;;2.30;0.82;;;;;;;25.13;30.13;101364.03;5103431;28;20031;-46
2022/06/02 01:30:02;;;;;;;3.55;0.50;;;;;;;25.11;30.44;101358.75;5103564;28;20036;-44
2022/06/02 01:32:50;;;;;;;2.47;0.50;;;;;;;25.11;29.97;101363.13;5100758;28;20046;-43
2022/06/02 01:35:37;;;;;;;3.45;0.60;;;;;;;25.05;30.15;101345.56;5098152;28;20122;-43
2022/06/02 01:38:28;;;;;;;2.83;0.52;;;;;;;25.13;29.85;101350.91;5106854;28;20032;-44
2022/06/02 01:41:03;;;;;;;1.48;0.52;;;;;;;25.09;29.88;101352.59;5105794;28;20036;-43
2022/06/02 01:43:44;;;;;;;0.95;0.60;;;;;;;25.15;30.33;101355.31;5107391;28;20027;-44
2022/06/02 01:46:29;;;;;;;3.58;1.10;;;;;;;24.98;30.12;101330.56;5106094;28;20434;-43
2022/06/02 01:48:57;;;;;;;;;;;;;;;25.21;29.85;101365.00;5107894;28;20224;-44
2022/06/02 01:51:42;;;;;;;0.77;0.60;;;;;;;25.13;30.21;101354.41;5107268;28;19916;-44
2022/06/02 01:54:28;;;;;;;;;;;;;;;25.20;30.07;101358.00;5106464;28;20072;-43
2022/06/02 01:57:19;;;;;;;2.42;0.60;;;;;;;25.20;30.50;101357.13;5081333;28;20175;-43
2022/06/02 01:59:58;;;;;;;2.03;0.60;;;;;;;25.14;30.55;101343.03;5103379;28;20039;-43
2022/06/02 02:02:30;;;;;;;1.10;0.45;;;;;;;25.22;30.36;101352.78;5107200;28;20028;-43
2022/06/02 02:05:21;;;;;;;3.38;0.52;;;;;;;25.19;30.45;101353.59;5106892;28;20514;-43
2022/06/02 02:07:58;;;;;;;1.42;0.50;;;;;;;25.18;30.47;101362.34;5097388;28;20058;-45
2022/06/02 02:10:27;;;;;;;1.75;0.50;;;;;;;25.20;30.58;101363.25;5104888;28;20046;-43
2022/06/02 02:13:15;;;;;;;1.52;0.60;;;;;;;25.18;30.88;101357.09;5106773;28;20043;-43
2022/06/02 02:16:08;;;;;;;1.90;0.50;;;;;;;25.10;30.92;101329.84;5102665;28;20040;-43
2022/06/02 02:18:42;;;;;;;0.80;0.47;;;;;;;25.26;30.69;101350.22;5102422;28;20044;-43
2022/06/02 02:21:19;;;;;;;1.80;0.63;;;;;;;25.27;30.65;101344.09;5106394;28;20046;-43
2022/06/02 02:24:01;;;;;;;1.85;0.43;;;;;;;25.21;30.92;101338.75;5105772;28;20035;-44
2022/06/02 02:26:53;;;;;;;1.52;0.45;;;;;;;25.15;30.98;101344.81;5088389;28;20023;-43
2022/06/02 02:29:36;;;;;;;2.22;0.88;;;;;;;25.17;31.08;101335.22;5079329;28;20034;-43
2022/06/02 02:32:10;;;;;;;1.08;0.40;;;;;;;25.22;30.94;101331.78;5106363;28;20557;-44
2022/06/02 02:34:46;;;;;;;3.25;0.40;;;;;;;25.08;31.44;101344.69;5106079;28;20032;-45
2022/06/02 02:37:23;;;;;;;1.55;0.57;;;;;;;25.03;31.47;101345.50;5106339;28;20039;-45
2022/06/02 02:40:10;;;;;;;2.92;0.57;;;;;;;24.92;31.24;101341.84;5104761;28;20469;-43
2022/06/02 02:42:51;;;;;;;0.90;0.40;;;;;;;24.86;31.60;101342.66;5105935;28;20027;-44
2022/06/02 02:45:38;;;;;;;2.70;0.80;;;;;;;24.96;31.16;101342.78;5104309;28;20030;-44
2022/06/02 02:48:35;;;;;;;2.20;0.60;;;;;;;24.89;31.30;101339.19;5102475;28;20039;-44
2022/06/02 02:51:23;;;;;;;1.00;0.52;;;;;;;24.92;31.68;101333.09;5095908;28;20619;-44
2022/06/02 02:54:02;;;;;;;1.00;0.52;;;;;;;24.88;31.61;101335.69;5106060;28;20027;-44
2022/06/02 02:56:42;;;;;;;1.27;0.52;;;;;;;24.93;31.29;101343.63;5105897;28;20063;-43
2022/06/02 02:59:25;;;;;;;1.08;0.60;;;;;;;24.88;31.55;101334.78;5104024;28;20421;-44
2022/06/02 03:02:15;;;;;;;1.60;0.60;;;;;;;24.81;31.38;101331.19;5104586;28;20489;-43
2022/06/02 03:05:21;;;;;;;1.70;0.47;;;;;;;24.77;31.58;101331.13;5097959;28;20050;-44
2022/06/02 03:07:50;;;;;;;0.80;0.50;;;;;;;24.76;31.79;101324.13;5102463;28;20127;-43
2022/06/02 03:10:23;;;;;;;0.77;0.40;;;;;;;24.67;31.67;101322.19;5105592;28;20035;-46
2022/06/02 03:13:15;;;;;;;0.85;0.68;;;;;;;24.63;32.01;101328.25;5103955;28;20515;-43
2022/06/02 03:15:50;;;;;;;1.98;0.88;;;;;;;24.54;31.83;101323.72;5104901;28;20435;-45
2022/06/02 03:18:28;;;;;;;1.13;0.50;;;;;;;24.58;31.83;101320.31;5103910;28;20027;-43
2022/06/02 03:20:59;;;;;;;2.05;0.50;;;;;;;24.56;31.79;101322.03;5103769;28;20031;-48
2022/06/02 03:24:05;;;;;;;1.15;0.43;;;;;;;24.55;31.84;101328.13;5105554;28;20076;-44
2022/06/02 03:27:12;;;;;;;3.90;0.55;;;;;;;24.61;31.72;101328.22;5102962;28;20404;-44
2022/06/02 03:29:50;;;;;;;1.42;0.47;;;;;;;24.55;31.58;101328.13;5097098;28;20036;-47
2022/06/02 03:32:41;;;;;;;2.90;0.68;;;;;;;24.64;31.50;101323.03;5103778;28;20023;-43
2022/06/02 03:35:29;;;;;;;1.15;0.40;;;;;;;24.60;31.90;101322.94;5099299;28;20401;-45
2022/06/02 03:38:05;;;;;;;4.53;0.73;;;;;;;24.55;31.87;101313.28;5103457;28;20202;-44
2022/06/02 03:40:58;;;;;;;0.30;0.30;;;;;;;24.50;31.66;101317.56;5105005;27;20067;-44
2022/06/02 03:43:32;;;;;;;3.08;0.50;;;;;;;24.50;32.04;101319.28;5075743;28;20047;-45
2022/06/02 03:46:13;;;;;;;0.85;0.40;;;;;;;24.55;31.72;101317.63;5105050;28;21013;-46
2022/06/02 03:48:46;;;;;;;0.80;0.35;;;;;;;24.50;31.67;101317.56;5103461;28;20032;-46
2022/06/02 03:51:36;;;;;;;3.80;0.50;;;;;;;24.41;31.85;101320.91;5103400;28;20455;-44
2022/06/02 03:54:08;;;;;;;0.98;0.40;;;;;;;24.43;32.04;101316.59;5100943;27;20063;-43
2022/06/02 03:56:37;;;;;;;4.88;0.70;;;;;;;24.44;31.85;101320.06;5103437;28;20028;-44
2022/06/02 03:59:43;;;;;;;1.58;0.60;;;;;;;24.40;32.21;101321.78;5104894;28;20039;-46
2022/06/02 04:02:15;;;;;;;1.65;0.60;;;;;;;24.49;32.04;101317.53;5103162;28;20096;-45
2022/06/02 04:05:16;;;;;;;1.50;0.60;;;;;;;24.49;31.77;101326.28;5104699;28;20036;-44
2022/06/02 04:08:06;;;;;;;2.25;0.70;;;;;;;24.54;31.59;101324.63;5103108;28;20067;-44
2022/06/02 04:10:41;;;;;;;1.73;0.55;;;;;;;24.51;31.88;101323.66;5104292;28;20442;-45
2022/06/02 04:13:38;;;;;;;0.93;0.40;;;;;;;24.34;31.96;101326.91;5104266;28;20048;-44
2022/06/02 04:16:13;;;;;;;0.95;0.40;;;;;;;24.35;31.74;101320.78;5103022;28;20116;-46
2022/06/02 04:19:00;;;;;;;3.65;0.45;;;;;;;24.33;31.99;101322.50;5104188;28;20221;-44
2022/06/02 04:21:42;;;;;;;0.73;0.52;;;;;;;24.26;32.15;101318.03;5094585;28;20047;-44
2022/06/02 04:24:31;;;;;;;1.52;0.45;;;;;;;24.43;31.70;101327.06;5104389;28;20019;-43
2022/06/02 04:27:13;;;;;;;1.17;0.30;;;;;;;24.44;31.54;101322.69;5102787;28;20119;-43
2022/06/02 04:30:00;;;;;;;1.70;0.50;;;;;;;24.45;31.72;101318.34;5102768;28;20027;-43
2022/06/02 04:33:08;;;;;;;0.90;0.25;;;;;;;24.36;31.93;101319.94;5100525;28;20463;-46
2022/06/02 04:36:13;;;;;;;1.52;0.55;;;;;;;24.36;31.83;101327.81;5100471;28;20032;-48
2022/06/02 04:39:10;;;;;;;1.67;0.50;;;;;;;24.36;31.74;101321.69;5100144;28;20088;-44
2022/06/02 04:42:01;;;;;;;2.53;0.45;;;;;;;24.33;31.56;101317.25;5099859;28;20147;-44
2022/06/02 04:44:53;;;;;;;0.80;0.43;;;;;;;24.30;31.76;101321.56;5104126;28;20489;-44
2022/06/02 04:47:28;;;;;;;1.10;0.50;;;;;;;24.32;32.02;101322.50;5097182;28;20500;-44
2022/06/02 04:50:22;;;;;;;1.20;0.40;;;;;;;24.33;31.56;101319.88;5102559;28;20471;-47
2022/06/02 04:52:55;;;;;;;1.60;0.40;;;;;;;24.23;32.05;101318.88;5099991;28;20043;-45
2022/06/02 04:55:30;;;;;;;0.55;0.20;;;;;;;24.26;31.72;101318.03;5102793;28;20023;-45
2022/06/02 04:58:00;;;;;;;;;;;;;;;24.23;32.10;101312.72;5103129;28;20031;-45
2022/06/02 05:00:43;;;;;;;1.48;0.38;;;;;;;24.28;31.88;101309.31;5103495;28;20052;-43
2022/06/02 05:03:29;;;;;;;1.38;0.90;;;;;;;24.21;32.15;101304.84;5102525;28;20046;-44
2022/06/02 05:06:35;;;;;;;1.05;0.45;;;;;;;24.21;32.12;101309.19;5103779;28;20036;-44
2022/06/02 05:09:03;;;;;;;1.30;0.50;;;;;;;24.17;31.77;101300.41;5102790;28;20047;-43
2022/06/02 05:11:40;;;;;;;1.50;0.50;;;;;;;24.12;32.11;101297.72;5107623;28;20027;-43
2022/06/02 05:14:32;;;;;;;1.52;0.70;;;;;;;24.12;32.22;101302.06;5107920;28;20495;-46
2022/06/02 05:17:26;;;;;;;1.23;0.45;;;;;;;24.11;31.99;101289.81;5106389;28;20028;-44
2022/06/02 05:20:16;;;;;;;1.75;0.60;;;;;;;24.15;31.87;101291.63;5102769;28;20073;-44
2022/06/02 05:23:02;;;;;;;1.88;0.55;;;;;;;24.17;31.76;101283.78;5104349;28;20130;-44
2022/06/02 05:25:41;;;;;;;1.30;0.45;;;;;;;24.14;31.76;101287.22;5107925;28;20051;-43
2022/06/02 05:28:47;;;;;;;1.40;0.63;;;;;;;24.02;32.37;101287.91;5106220;28;20027;-43
2022/06/02 05:31:14;;;;;;;;;;;;;;;24.16;32.12;101279.41;5099978;28;20044;-45
2022/06/02 05:33:54;;;;;;;2.50;0.65;;;;;;;24.28;32.01;101277.88;5107016;28;19920;-46
2022/06/02 05:36:46;;;;;;;1.90;0.80;;;;;;;24.31;31.72;101277.06;5107598;28;20179;-45
2022/06/02 05:39:15;;;;;;;1.23;0.47;;;;;;;24.34;31.75;101294.56;5105811;28;20146;-44
2022/06/02 05:41:59;;;;;;;2.33;0.50;;;;;;;24.35;31.82;101284.09;5107355;28;20038;-44
2022/06/02 05:44:47;;;;;;;1.48;0.60;;;;;;;24.36;31.87;101285.00;5105804;28;20031;-46
2022/06/02 05:47:54;;;;;;;1.85;0.60;;;;;;;24.42;32.17;101280.72;5106833;28;20035;-44
2022/06/02 05:50:22;;;;;;;2.58;0.60;;;;;;;24.53;31.62;101275.66;5105523;28;20028;-45
2022/06/02 05:53:00;;;;;;;2.50;0.55;;;;;;;24.68;31.50;101277.59;5107273;27;20106;-43
2022/06/02 05:55:34;;;;;;;1.80;0.60;;;;;;;24.84;31.36;101275.25;5106959;28;20037;-45
2022/06/02 05:58:40;;;;;;;1.65;0.55;;;;;;;24.86;31.57;101268.28;5105817;28;20035;-47
2022/06/02 06:01:36;;;;;;;2.55;0.52;;;;;;;24.91;31.74;101269.22;5102736;28;20039;-45
2022/06/02 06:04:43;;;;;;;0.73;0.25;;;;;;;24.97;31.51;101269.31;5097170;28;20388;-44
2022/06/02 06:07:35;;;;;;;3.83;0.95;;;;;;;24.97;31.58;101271.94;5106037;28;20028;-45
2022/06/02 06:10:21;;;;;;;3.15;0.80;;;;;;;25.09;31.29;101275.59;5102854;28;20035;-48
2022/06/02 06:12:58;;;;;;;4.20;0.70;;;;;;;25.08;31.53;101271.19;5102728;28;20059;-44
2022/06/02 06:15:54;;;;;;;3.20;0.50;;;;;;;25.11;31.15;101269.50;5106774;28;20051;-49
2022/06/02 06:18:28;;;;;;;7.78;0.80;;;;;;;25.15;31.50;101268.69;5103258;28;20046;-43
2022/06/02 06:21:02;;;;;;;1.95;0.60;;;;;;;25.25;31.33;101274.94;5105695;28;20612;-46
2022/06/02 06:23:59;;;;;;;2.35;0.80;;;;;;;25.25;31.54;101267.06;5105200;28;20024;-49
2022/06/02 06:26:49;;;;;;;2.38;0.68;;;;;;;25.20;31.15;101242.47;5102422;27;20096;-45
2022/06/02 06:29:32;;;;;;;1.23;0.40;;;;;;;25.40;31.39;101268.09;5106249;28;20028;-44
2022/06/02 06:32:39;;;;;;;1.67;0.50;;;;;;;25.50;31.06;101262.09;5106165;28;20043;-46
2022/06/02 06:35:34;;;;;;;9.90;1.05;;;;;;;25.53;31.21;101259.53;5099383;28;20050;-45
2022/06/02 06:38:03;;;;;;;2.08;0.70;;;;;;;25.60;31.46;101263.09;5101414;28;20560;-46
2022/06/02 06:41:10;;;;;;;1.55;0.50;;;;;;;25.70;31.15;101257.09;5105899;28;20075;-44
2022/06/02 06:43:39;;;;;;;2.42;0.60;;;;;;;25.77;31.44;101263.28;5096381;28;20400;-44
2022/06/02 06:46:17;;;;;;;1.67;0.50;;;;;;;25.85;31.31;101256.34;5106281;28;20097;-49
2022/06/02 06:48:53;;;;;;;1.17;0.68;;;;;;;25.90;31.29;101264.25;5104876;28;20523;-44
2022/06/02 06:51:23;;;;;;;1.77;0.52;;;;;;;25.93;31.02;101269.56;5104499;28;20032;-47
2022/06/02 06:54:10;;;;;;;2.38;0.50;;;;;;;25.96;31.20;101268.72;5105809;28;20039;-47
2022/06/02 06:56:50;;;;;;;1.52;0.47;;;;;;;25.99;31.12;101267.00;5078458;28;20585;-49
2022/06/02 06:59:44;;;;;;;1.15;0.50;;;;;;;26.00;31.26;101254.72;5105702;28;20396;-46
2022/06/02 07:02:15;;;;;;;2.38;0.63;;;;;;;26.05;31.10;101258.28;5105484;28;20023;-45
2022/06/02 07:05:03;;;;;;;4.80;0.50;;;;;;;26.09;31.04;101265.34;5106168;28;20343;-45
2022/06/02 07:07:53;;;;;;;1.35;0.50;;;;;;;26.21;30.95;101265.47;5105722;28;20513;-45
2022/06/02 07:10:40;;;;;;;4.25;0.70;;;;;;;26.22;30.85;101269.84;5103175;28;20039;-47
2022/06/02 07:13:18;;;;;;;3.20;0.70;;;;;;;26.23;31.35;101274.25;5101046;28;20044;-44
2022/06/02 07:15:48;;;;;;;0.98;0.40;;;;;;;26.30;31.15;101266.41;5105111;28;20027;-43
2022/06/02 07:18:19;;;;;;;3.63;0.60;;;;;;;26.34;31.09;101263.81;5103902;28;20172;-44
2022/06/02 07:21:07;;;;;;;1.77;0.63;;;;;;;26.37;31.13;101266.47;5103790;28;20066;-44
2022/06/02 07:23:42;;;;;;;1.65;0.73;;;;;;;26.45;31.09;101263.91;5105192;28;21207;-48
2022/06/02 07:26:35;;;;;;;2.22;0.57;;;;;;;26.54;30.97;101270.97;5105427;28;20028;-44
2022/06/02 07:29:42;;;;;;;0.75;0.45;;;;;;;26.68;30.93;101273.69;5102427;28;20118;-47
2022/06/02 07:32:48;;;;;;;2.30;0.77;;;;;;;26.75;30.72;101274.59;5087085;28;20519;-45
2022/06/02 07:35:54;;;;;;;1.60;0.52;;;;;;;26.78;30.76;101267.63;5104761;28;20024;-47
2022/06/02 07:38:30;;;;;;;1.42;0.60;;;;;;;26.76;30.84;101263.19;5096791;28;20058;-44
2022/06/02 07:41:21;;;;;;;3.83;0.70;;;;;;;26.77;30.61;101255.34;5105147;28;20062;-44
2022/06/02 07:44:11;;;;;;;2.53;0.57;;;;;;;26.82;30.53;101264.16;5104575;28;20035;-44
2022/06/02 07:47:07;;;;;;;4.10;1.00;;;;;;;26.87;30.61;101269.47;5104966;28;20455;-46
2022/06/02 07:49:47;;;;;;;2.58;0.70;;;;;;;26.86;30.32;101259.81;5103297;28;21040;-45
2022/06/02 07:52:19;;;;;;;1.10;0.50;;;;;;;26.89;30.66;101269.47;5103637;28;20118;-43
2022/06/02 07:55:15;;;;;;;2.58;0.88;;;;;;;26.94;30.31;101259.84;5105010;28;20042;-45
2022/06/02 07:58:03;;;;;;;2.92;0.82;;;;;;;27.00;30.72;101270.38;5101780;28;20042;-44
2022/06/02 08:00:41;;;;;;;2.85;0.60;;;;;;;27.02;30.52;101275.69;5100609;28;20051;-44
2022/06/02 08:03:18;;;;;;;3.20;0.70;;;;;;;27.05;30.52;101278.34;5103347;28;20023;-43
2022/06/02 08:05:56;;;;;;;1.98;0.47;;;;;;;27.02;30.37;101268.66;5102872;28;20031;-48
2022/06/02 08:09:03;;;;;;;1.30;0.57;;;;;;;27.11;30.33;101276.59;5102818;28;20377;-44
2022/06/02 08:11:39;;;;;;;5.40;1.00;;;;;;;27.06;30.50;101270.44;5090611;28;20040;-47
2022/06/02 08:14:10;;;;;;;2.17;0.47;;;;;;;27.09;30.26;101264.28;5102665;28;20088;-50
2022/06/02 08:17:02;;;;;;;3.05;0.70;;;;;;;27.09;30.50;101272.19;5104354;28;20027;-46
2022/06/02 08:19:36;;;;;;;1.17;0.50;;;;;;;27.06;30.49;101269.53;5102829;28;20485;-49
2022/06/02 08:22:09;;;;;;;5.35;0.60;;;;;;;27.04;30.47;101260.78;5104259;28;20030;-47
2022/06/02 08:24:41;;;;;;;2.33;0.57;;;;;;;27.02;30.53;101270.41;5102276;28;20027;-48
2022/06/02 08:27:36;;;;;;;4.13;0.70;;;;;;;27.02;30.43;101271.28;5103883;28;20032;-44
2022/06/02 08:30:08;;;;;;;2.10;0.73;;;;;;;27.06;30.44;101270.44;5100014;28;20047;-45
2022/06/02 08:32:37;;;;;;;4.18;0.50;;;;;;;27.09;30.50;101278.34;5104480;28;20804;-50
2022/06/02 08:35:28;;;;;;;1.70;0.57;;;;;;;27.07;30.62;101272.19;5102389;28;20080;-43
2022/06/02 08:37:58;;;;;;;1.60;0.57;;;;;;;27.07;30.68;101274.81;5100507;28;20380;-43
2022/06/02 08:40:48;;;;;;;4.97;0.80;;;;;;;27.09;30.74;101270.44;5102111;28;20366;-50
2022/06/02 08:43:17;;;;;;;1.80;0.63;;;;;;;27.07;30.37;101277.47;5100678;28;20114;-45
2022/06/02 08:45:50;;;;;;;1.08;0.60;;;;;;;27.05;30.30;101273.06;5104282;28;20209;-43
2022/06/02 08:48:33;;;;;;;3.40;0.70;;;;;;;27.00;30.57;101257.22;5104264;28;20049;-43
2022/06/02 08:51:20;;;;;;;2.97;0.68;;;;;;;27.07;30.47;101271.28;5102454;28;20869;-44
2022/06/02 08:54:17;;;;;;;0.70;0.40;;;;;;;27.03;30.52;101259.00;5099759;28;20433;-48
2022/06/02 08:57:12;;;;;;;1.77;0.47;;;;;;;27.02;30.45;101254.63;5103644;28;20059;-45
2022/06/02 08:59:59;;;;;;;1.05;0.50;;;;;;;27.13;30.66;101261.69;5095260;28;20931;-44
2022/06/02 09:02:28;;;;;;;2.65;0.60;;;;;;;27.15;30.48;101259.91;5096904;28;20036;-49
2022/06/02 09:05:15;;;;;;;1.27;0.50;;;;;;;27.14;30.40;101258.16;5103711;28;20126;-44
2022/06/02 09:08:03;;;;;;;1.80;0.60;;;;;;;27.20;30.32;101259.06;5103402;28;20024;-48
2022/06/02 09:10:35;;;;;;;3.03;0.60;;;;;;;27.17;30.48;101259.06;5103745;28;20132;-48
2022/06/02 09:13:31;;;;;;;1.00;0.60;;;;;;;27.15;30.62;101264.31;5103756;28;20934;-44
2022/06/02 09:16:28;;;;;;;3.38;0.70;;;;;;;27.15;30.60;101259.06;5099954;28;20040;-47
2022/06/02 09:19:17;;;;;;;14.02;1.02;;;;;;;27.18;30.74;101263.44;5100845;28;20082;-46
2022/06/02 09:22:05;;;;;;;1.65;0.60;;;;;;;27.21;30.37;101253.81;5103864;28;20366;-47
2022/06/02 09:25:07;;;;;;;1.63;0.77;;;;;;;27.20;30.36;101259.06;5099598;28;20127;-48
2022/06/02 09:28:14;;;;;;;2.85;0.75;;;;;;;27.16;30.33;101255.56;5103401;28;20059;-47
2022/06/02 09:30:42;;;;;;;3.35;0.80;;;;;;;27.15;30.28;101257.28;5091599;28;20043;-47
2022/06/02 09:33:33;;;;;;;2.45;0.80;;;;;;;27.06;30.06;101251.09;5103727;28;20110;-47
2022/06/02 09:36:29;;;;;;;2.33;0.77;;;;;;;27.13;30.09;101260.81;5102484;28;20032;-44
2022/06/02 09:39:09;;;;;;;2.97;0.85;;;;;;;27.07;30.19;101264.28;5100612;28;20162;-44
2022/06/02 09:41:49;;;;;;;2.15;0.75;;;;;;;27.07;30.36;101264.28;5103660;28;20024;-47
2022/06/02 09:44:24;;;;;;;3.15;0.75;;;;;;;27.03;30.06;101262.50;5102324;28;20028;-44
2022/06/02 09:47:10;;;;;;;;;;;;;;;27.13;30.40;101263.44;5103703;28;20031;-49
2022/06/02 09:50:16;;;;;;;6.25;0.90;;;;;;;27.13;30.19;101256.44;5103099;28;20360;-49
2022/06/02 09:52:44;;;;;;;3.20;0.80;;;;;;;27.17;30.31;101262.59;5095644;28;20217;-45
2022/06/02 09:55:39;;;;;;;2.33;0.57;;;;;;;27.12;30.38;101261.66;5106104;28;20049;-50
2022/06/02 09:58:46;;;;;;;1.50;0.75;;;;;;;27.08;30.34;101263.41;5102352;28;21171;-47
2022/06/02 10:01:47;;;;;;;2.35;0.75;;;;;;;27.04;30.43;101260.78;5102610;28;20040;-47
2022/06/02 10:04:16;;;;;;;4.07;0.82;;;;;;;27.04;30.37;101261.63;5105991;28;20065;-46
2022/06/02 10:07:07;;;;;;;2.17;1.02;;;;;;;27.11;30.03;101268.72;5105641;28;20494;-46
2022/06/02 10:09:50;;;;;;;4.53;1.13;;;;;;;27.07;30.13;101260.75;5104344;28;20046;-46
2022/06/02 10:12:58;;;;;;;2.05;0.70;;;;;;;27.07;30.58;101260.75;5105252;28;20497;-43
2022/06/02 10:15:27;;;;;;;2.03;0.70;;;;;;;26.99;30.87;101266.88;5106019;28;20397;-45
2022/06/02 10:18:22;;;;;;;1.85;0.60;;;;;;;26.98;30.70;101257.22;5106420;28;20085;-47
2022/06/02 10:20:57;;;;;;;1.55;0.60;;;;;;;26.95;30.14;101261.59;5101739;28;20055;-46
2022/06/02 10:23:42;;;;;;;3.60;0.63;;;;;;;26.95;30.44;101257.22;5106489;28;20085;-49
2022/06/02 10:26:12;;;;;;;;;;;;;;;27.03;30.16;101264.28;5105826;28;20024;-44
2022/06/02 10:29:12;;;;;;;2.80;0.70;;;;;;;27.03;30.33;101259.88;5104915;28;19922;-45
2022/06/02 10:32:00;;;;;;;4.18;1.45;;;;;;;27.04;30.15;101264.28;5102789;28;20104;-45
2022/06/02 10:34:30;;;;;;;2.63;0.63;;;;;;;27.03;30.22;101259.00;5106465;28;20034;-44
2022/06/02 10:37:18;;;;;;;3.33;0.85;;;;;;;26.98;30.44;101253.69;5106097;28;20473;-46
2022/06/02 10:40:06;;;;;;;1.50;0.68;;;;;;;27.00;30.37;101265.13;5102282;28;20058;-44
2022/06/02 10:42:42;;;;;;;6.50;0.90;;;;;;;26.97;30.47;101249.34;5096588;28;20399;-46
2022/06/02 10:45:33;;;;;;;2.15;0.80;;;;;;;27.17;30.48;101251.16;5105057;28;20131;-45
2022/06/02 10:48:39;;;;;;;4.60;1.10;;;;;;;27.17;30.41;101240.63;5105666;28;20477;-43
2022/06/02 10:51:46;;;;;;;5.05;1.05;;;;;;;27.11;30.91;101238.84;5105429;28;20489;-51
2022/06/02 10:54:33;;;;;;;6.30;1.52;;;;;;;26.97;31.50;101238.81;5105633;28;20118;-49
2022/06/02 10:57:02;;;;;;;2.20;0.80;;;;;;;26.96;31.37;101244.94;5102371;28;20039;-43
2022/06/02 11:00:08;;;;;;;4.10;0.80;;;;;;;26.99;31.06;101242.28;5105686;27;20059;-45
2022/06/02 11:02:56;;;;;;;4.97;1.13;;;;;;;26.87;31.40;101239.63;5101152;28;20035;-49
2022/06/02 11:06:02;;;;;;;4.53;0.90;;;;;;;26.98;30.95;101241.44;5100994;28;20049;-44
2022/06/02 11:09:03;;;;;;;5.78;0.93;;;;;;;27.00;31.23;101241.44;5104191;28;20039;-47
2022/06/02 11:11:51;;;;;;;4.53;0.80;;;;;;;27.04;30.98;101235.31;5096598;28;20048;-44
2022/06/02 11:14:54;;;;;;;3.28;0.90;;;;;;;27.05;30.55;101220.41;5101571;27;20051;-44
2022/06/02 11:17:42;;;;;;;5.65;1.10;;;;;;;27.15;30.79;101223.06;5101763;28;20142;-49
2022/06/02 11:20:32;;;;;;;3.53;1.30;;;;;;;27.20;30.97;101222.19;5101666;28;20493;-46
2022/06/02 11:23:34;;;;;;;3.40;0.98;;;;;;;27.19;31.40;101226.59;5104126;28;20393;-49
2022/06/02 11:26:43;;;;;;;2.27;0.73;;;;;;;27.27;31.01;101224.00;5101576;28;20079;-43
2022/06/02 11:29:31;;;;;;;6.82;1.27;;;;;;;27.23;30.92;101220.44;5101113;27;20054;-44
2022/06/02 11:32:22;;;;;;;2.85;0.85;;;;;;;27.26;30.77;101227.50;5104761;28;20051;-50
2022/06/02 11:35:22;;;;;;;4.45;0.95;;;;;;;27.23;30.68;101219.59;5101741;28;20489;-45
2022/06/02 11:38:18;;;;;;;5.68;0.70;;;;;;;27.25;30.81;101223.97;5103908;28;20032;-43
2022/06/02 11:41:10;;;;;;;4.00;1.00;;;;;;;27.15;30.79;101216.91;5101022;28;20732;-47
2022/06/02 11:43:58;;;;;;;5.18;0.80;;;;;;;27.18;30.68;101213.41;5101617;28;20471;-47
2022/06/02 11:46:52;;;;;;;2.97;0.95;;;;;;;27.21;31.37;101224.84;5101386;28;20477;-44
2022/06/02 11:49:46;;;;;;;2.58;1.00;;;;;;;27.17;30.70;101219.56;5103358;28;20046;-48
2022/06/02 11:52:52;;;;;;;5.07;1.00;;;;;;;27.01;30.95;101198.44;5099678;28;20051;-48
2022/06/02 11:55:41;;;;;;;5.70;0.75;;;;;;;27.25;30.73;101216.06;5098704;28;20039;-49
2022/06/02 11:58:47;;;;;;;4.55;0.70;;;;;;;27.11;30.66;101213.41;5101260;28;20143;-43
2022/06/02 12:01:39;;;;;;;2.92;0.77;;;;;;;27.17;30.38;101209.00;5099702;28;20043;-50
2022/06/02 12:04:24;;;;;;;1.88;0.80;;;;;;;27.22;30.82;101183.59;5102064;28;20496;-45
2022/06/02 12:07:30;;;;;;;2.03;0.90;;;;;;;27.26;30.69;101202.03;5104372;28;20515;-45
2022/06/02 12:10:02;;;;;;;5.20;1.02;;;;;;;27.31;31.21;101199.41;5095298;28;20110;-44
2022/06/02 12:13:08;;;;;;;3.28;0.95;;;;;;;27.37;31.13;101194.16;5104186;28;20052;-42
2022/06/02 12:16:00;;;;;;;2.40;0.90;;;;;;;27.36;31.34;101189.75;5093951;28;20081;-44
2022/06/02 12:18:57;;;;;;;5.78;1.00;;;;;;;27.47;31.06;101191.59;5100751;28;20032;-43
2022/06/02 12:22:03;;;;;;;4.25;1.30;;;;;;;27.37;30.66;101164.31;5100590;28;20540;-43
2022/06/02 12:24:43;;;;;;;5.03;1.20;;;;;;;27.35;31.95;101193.28;5095949;28;20074;-45
2022/06/02 12:27:36;;;;;;;3.47;1.10;;;;;;;27.33;32.39;101194.16;5086048;28;20064;-43
2022/06/02 12:30:32;;;;;;;4.78;1.40;;;;;;;27.36;32.51;101191.53;5103351;28;20062;-45
2022/06/02 12:33:06;;;;;;;4.00;0.93;;;;;;;27.40;32.22;101182.72;5102164;28;20035;-43
2022/06/02 12:35:40;;;;;;;6.50;1.53;;;;;;;27.38;32.83;101195.91;5104343;28;20115;-43
2022/06/02 12:38:46;;;;;;;4.93;1.20;;;;;;;27.35;32.92;101185.38;5104010;28;20031;-47
2022/06/02 12:41:52;;;;;;;4.57;1.30;;;;;;;27.38;32.87;101189.78;5096637;28;20100;-43
2022/06/02 12:44:41;;;;;;;11.85;1.30;;;;;;;27.29;32.43;101188.00;5085910;28;20051;-43
2022/06/02 12:47:26;;;;;;;3.13;0.85;;;;;;;27.31;32.28;101186.22;5103884;28;20032;-43
2022/06/02 12:50:17;;;;;;;4.63;1.25;;;;;;;27.38;32.01;101193.28;5104227;28;20031;-43
2022/06/02 12:53:10;;;;;;;2.75;0.73;;;;;;;27.32;31.55;101187.13;5067970;28;20043;-43
2022/06/02 12:56:16;;;;;;;2.13;0.88;;;;;;;27.43;31.44;101194.19;5102453;28;20039;-45